Etusivu
METAR-TAF:

METAR-TAF

Lentoasemat :

Deer Park Airport

Deer Park, Washington, Yhdysvallat

Leveyspiiri: 47-58-27N, Pituuspiiri: 117-25-42W, korkeus merenpinnasta: 672 m

Tämänhetkinen sää

Tämä raportti tehtiin 27 minuuttia sitten, kello 02.53 UTC
Tuuli 11 kn pohjoisesta/koillisesta
Lämpötila 7°C
Kosteus 87%
Ilmanpaine 1008 hPa
Näkyvyys: 16.1 km
Pilvistä 10000 ft:n korkeudessa

METAR: KDEW 190253Z AUTO 03011KT 10SM OVC100 07/05 A2976 RMK AO2 SLP085 T00720050 58035

Aika: 19:20 (03:20 UTC)


TAF: puuttuu

Säähavainnot ja -ennusteet yli 4000 lentoasemalta (METAR- ja TAF-raportit).

Käytössä olevat sääasemat on merkitty karttaan keltaisilla ja punaisilla pisteillä.

Aseta hiiri pisteen päälle nähdäksesi sääaseman nimen.

Klikkaa sitten nähdäksesi säähavainnot ja -ennusteet.

Kartan vaihtaminen: klikkaa mustalla rastilla varustettuja vihreitä pisteitä, niin voit zoomata sisään; viivalla varustettua vihreää pistettä, niin voit zoomata ulos tai vihreitä nuolia, niin pääset viereisille kartoille.


METAR-TAF: